Time;durP1;ratioP1;P1;durP2;ratioP2;P2;SDS_P1;SDS_P2;PMS_P1;PMS_P2;Temp;Humidity;BMP_temperature;BMP_pressure;BME280_temperature;BME280_humidity;BME280_pressure;Samples;Min_cycle;Max_cycle;Signal;HPM_P1;HPM_P2
2023/08/04 00:00:02;;;;;;;5.78;2.15;;;;;;;;;;8459764;28;20049;-85
2023/08/04 00:04:05;;;;;;;6.38;2.65;;;;;;;;;;8454109;28;20499;-85
2023/08/04 00:08:08;;;;;;;5.32;2.17;;;;;;;;;;8453360;28;20399;-86
2023/08/04 00:12:11;;;;;;;5.28;2.15;;;;;;;;;;8467397;28;20092;-90
2023/08/04 00:16:15;;;;;;;6.32;2.70;;;;;;;;;;8467512;28;20047;-90
2023/08/04 00:20:18;;;;;;;4.68;2.53;;;;;;;;;;8453715;28;20048;-89
2023/08/04 00:24:22;;;;;;;8.15;3.10;;;;;;;;;;8455426;28;20492;-89
2023/08/04 00:28:25;;;;;;;6.22;2.38;;;;;;;;;;8438877;28;20051;-90
2023/08/04 00:32:29;;;;;;;5.18;2.20;;;;;;;;;;8466810;28;20134;-86
2023/08/04 00:36:32;;;;;;;3.67;2.80;;;;;;;;;;8434675;28;20047;-93
2023/08/04 00:40:36;;;;;;;5.95;2.67;;;;;;;;;;8452314;28;20079;-91
2023/08/04 00:44:39;;;;;;;5.65;2.40;;;;;;;;;;8456799;28;20509;-93
2023/08/04 00:48:43;;;;;;;5.90;2.60;;;;;;;;;;8457022;28;20036;-92
2023/08/04 00:52:50;;;;;;;6.82;2.70;;;;;;;;;;8455010;28;20097;-89
2023/08/04 00:56:54;;;;;;;5.75;2.35;;;;;;;;;;8461236;28;20047;-92
2023/08/04 01:00:57;;;;;;;4.93;2.35;;;;;;;;;;8456733;28;20052;-91
2023/08/04 01:05:02;;;;;;;4.78;2.10;;;;;;;;;;8465320;28;20039;-90
2023/08/04 01:09:11;;;;;;;8.48;2.17;;;;;;;;;;8460238;28;20495;-86
2023/08/04 01:13:18;;;;;;;4.82;2.25;;;;;;;;;;8442818;28;20044;-89
2023/08/04 01:17:25;;;;;;;8.10;2.63;;;;;;;;;;8453297;28;20093;-92
2023/08/04 01:21:40;;;;;;;6.57;2.55;;;;;;;;;;8448623;28;20059;-89
2023/08/04 01:25:44;;;;;;;6.82;2.40;;;;;;;;;;8447775;28;20055;-87
2023/08/04 01:29:48;;;;;;;12.30;2.55;;;;;;;;;;8444117;28;20047;-86
2023/08/04 01:33:51;;;;;;;6.05;2.60;;;;;;;;;;8442990;28;20048;-86
2023/08/04 01:37:55;;;;;;;5.90;2.30;;;;;;;;;;8457684;28;20100;-87
2023/08/04 01:41:57;;;;;;;7.75;2.55;;;;;;;;;;8453620;28;20567;-90
2023/08/04 01:46:00;;;;;;;3.50;2.20;;;;;;;;;;8457825;28;20438;-86
2023/08/04 01:50:03;;;;;;;6.03;2.50;;;;;;;;;;8452715;28;20040;-93
2023/08/04 01:54:08;;;;;;;4.30;2.30;;;;;;;;;;8459227;28;20483;-86
2023/08/04 01:58:11;;;;;;;8.68;2.40;;;;;;;;;;8454518;28;20043;-86
2023/08/04 02:02:14;;;;;;;8.60;2.65;;;;;;;;;;8458063;28;20052;-89
2023/08/04 02:06:17;;;;;;;6.70;2.50;;;;;;;;;;8446048;28;20070;-91
2023/08/04 02:10:21;;;;;;;5.93;2.40;;;;;;;;;;8447689;28;20051;-85
2023/08/04 02:14:24;;;;;;;7.07;2.63;;;;;;;;;;8440923;28;20044;-89
2023/08/04 02:18:27;;;;;;;4.60;2.35;;;;;;;;;;8458353;28;20070;-91
2023/08/04 02:22:30;;;;;;;6.60;2.50;;;;;;;;;;8454576;28;20138;-90
2023/08/04 02:26:34;;;;;;;5.82;2.50;;;;;;;;;;8459012;28;20044;-87
2023/08/04 02:30:37;;;;;;;7.32;2.53;;;;;;;;;;8443282;28;20071;-86
2023/08/04 02:34:40;;;;;;;6.30;2.30;;;;;;;;;;8454531;28;20050;-89
2023/08/04 02:38:43;;;;;;;7.85;2.72;;;;;;;;;;8456623;28;20052;-88
2023/08/04 02:42:47;;;;;;;5.43;2.65;;;;;;;;;;8459778;28;20040;-85
2023/08/04 02:46:50;;;;;;;8.20;3.42;;;;;;;;;;8458038;28;20487;-86
2023/08/04 02:50:59;;;;;;;5.47;2.50;;;;;;;;;;8459927;28;20090;-85
2023/08/04 02:55:02;;;;;;;8.82;2.95;;;;;;;;;;8461301;28;20039;-86
2023/08/04 02:59:06;;;;;;;5.18;2.50;;;;;;;;;;8439519;28;20039;-90
2023/08/04 03:03:09;;;;;;;6.22;2.60;;;;;;;;;;8459355;28;20358;-87
2023/08/04 03:07:11;;;;;;;8.65;2.70;;;;;;;;;;8449785;28;20115;-87
2023/08/04 03:11:14;;;;;;;5.18;2.20;;;;;;;;;;8459623;28;20506;-86
2023/08/04 03:15:19;;;;;;;6.22;2.75;;;;;;;;;;8469594;28;20524;-89
2023/08/04 03:19:21;;;;;;;8.32;2.45;;;;;;;;;;8469266;28;20046;-86
2023/08/04 03:23:24;;;;;;;11.18;2.97;;;;;;;;;;8455273;28;20048;-91
2023/08/04 03:27:27;;;;;;;7.35;3.00;;;;;;;;;;8461139;28;20092;-88
2023/08/04 03:31:31;;;;;;;6.82;2.53;;;;;;;;;;8458603;28;20044;-86
2023/08/04 03:35:34;;;;;;;5.25;2.38;;;;;;;;;;8457581;28;20114;-87
2023/08/04 03:39:37;;;;;;;6.20;2.70;;;;;;;;;;8465784;28;20067;-88
2023/08/04 03:43:39;;;;;;;9.00;2.90;;;;;;;;;;8455138;28;20574;-92
2023/08/04 03:47:44;;;;;;;5.75;2.47;;;;;;;;;;8468399;28;20048;-86
2023/08/04 03:51:47;;;;;;;5.53;2.65;;;;;;;;;;8468424;28;20134;-92
2023/08/04 03:55:50;;;;;;;5.32;2.78;;;;;;;;;;8468332;28;20051;-88
2023/08/04 03:59:53;;;;;;;5.35;2.92;;;;;;;;;;8467626;28;20050;-86
2023/08/04 04:03:57;;;;;;;6.10;2.50;;;;;;;;;;8459307;28;20112;-90
2023/08/04 04:08:00;;;;;;;10.15;3.20;;;;;;;;;;8453282;28;20126;-90
2023/08/04 04:12:03;;;;;;;7.20;2.85;;;;;;;;;;8467893;28;20074;-92
2023/08/04 04:16:06;;;;;;;7.00;2.70;;;;;;;;;;8467027;28;20044;-87
2023/08/04 04:20:12;;;;;;;5.78;2.58;;;;;;;;;;8467720;28;20047;-92
2023/08/04 04:24:14;;;;;;;6.15;2.53;;;;;;;;;;8467540;28;20123;-90
2023/08/04 04:28:17;;;;;;;6.65;2.50;;;;;;;;;;8463535;28;20042;-86
2023/08/04 04:32:20;;;;;;;10.80;4.03;;;;;;;;;;8433954;28;20141;-87
2023/08/04 04:36:24;;;;;;;54.65;21.02;;;;;;;;;;8451767;28;20044;-86
2023/08/04 04:40:27;;;;;;;10.05;4.20;;;;;;;;;;8453247;28;20055;-86
2023/08/04 04:44:30;;;;;;;7.03;2.95;;;;;;;;;;8457409;28;20083;-88
2023/08/04 04:48:33;;;;;;;7.47;2.88;;;;;;;;;;8453993;28;20130;-86
2023/08/04 04:52:38;;;;;;;7.60;2.83;;;;;;;;;;8466131;28;20043;-91
2023/08/04 04:56:41;;;;;;;5.80;2.60;;;;;;;;;;8466013;28;20049;-87
2023/08/04 05:00:43;;;;;;;5.80;2.45;;;;;;;;;;8466011;28;20088;-86
2023/08/04 05:04:46;;;;;;;4.60;2.22;;;;;;;;;;8466263;28;20499;-86
2023/08/04 05:08:51;;;;;;;6.03;2.13;;;;;;;;;;8462222;28;20066;-86
2023/08/04 05:12:54;;;;;;;6.13;2.40;;;;;;;;;;8443089;28;20464;-88
2023/08/04 05:16:57;;;;;;;4.65;2.15;;;;;;;;;;8465722;28;20467;-86
2023/08/04 05:20:59;;;;;;;6.57;2.30;;;;;;;;;;8465306;28;20069;-91
2023/08/04 05:25:05;;;;;;;7.05;2.45;;;;;;;;;;8461170;28;20543;-86
2023/08/04 05:29:07;;;;;;;6.45;2.10;;;;;;;;;;8464678;28;20403;-86
2023/08/04 05:33:10;;;;;;;4.25;1.92;;;;;;;;;;8452426;28;20051;-88
2023/08/04 05:37:12;;;;;;;5.55;2.10;;;;;;;;;;8464371;28;20104;-92
2023/08/04 05:41:17;;;;;;;4.70;1.80;;;;;;;;;;8445869;28;20415;-92
2023/08/04 05:45:21;;;;;;;4.65;1.90;;;;;;;;;;8455538;28;20044;-89
2023/08/04 05:49:24;;;;;;;5.28;2.13;;;;;;;;;;8450252;28;20054;-88
2023/08/04 05:53:27;;;;;;;4.32;1.90;;;;;;;;;;8459395;28;20135;-89
2023/08/04 05:57:31;;;;;;;3.63;1.90;;;;;;;;;;8440887;28;20122;-88
2023/08/04 06:01:34;;;;;;;5.78;1.92;;;;;;;;;;8450821;28;20075;-91
2023/08/04 06:05:37;;;;;;;4.60;2.10;;;;;;;;;;8457010;28;20518;-89
2023/08/04 06:09:40;;;;;;;7.30;1.85;;;;;;;;;;8443845;28;20404;-86
2023/08/04 06:13:44;;;;;;;5.30;2.00;;;;;;;;;;8446588;28;20043;-94
2023/08/04 06:17:48;;;;;;;5.82;2.38;;;;;;;;;;8457488;28;20048;-91
2023/08/04 06:21:54;;;;;;;5.90;2.08;;;;;;;;;;8460574;28;20074;-93
2023/08/04 06:25:57;;;;;;;3.38;1.70;;;;;;;;;;8443882;28;20667;-85
2023/08/04 06:30:02;;;;;;;3.47;1.80;;;;;;;;;;8447896;28;20402;-87
2023/08/04 06:34:05;;;;;;;3.97;2.00;;;;;;;;;;8455181;28;20067;-86
2023/08/04 06:38:08;;;;;;;4.70;1.77;;;;;;;;;;8453216;28;20459;-85
2023/08/04 06:42:10;;;;;;;3.75;2.00;;;;;;;;;;8447191;28;20134;-85
2023/08/04 06:46:15;;;;;;;10.30;2.25;;;;;;;;;;8445085;28;20040;-86
2023/08/04 06:50:18;;;;;;;4.20;1.90;;;;;;;;;;8440125;28;20048;-90
2023/08/04 06:54:21;;;;;;;5.13;1.95;;;;;;;;;;8444326;28;20048;-86
2023/08/04 06:58:23;;;;;;;5.93;2.10;;;;;;;;;;8453610;28;20044;-85
2023/08/04 07:02:28;;;;;;;4.60;2.30;;;;;;;;;;8445389;28;20052;-87
2023/08/04 07:06:31;;;;;;;6.15;2.20;;;;;;;;;;8452614;28;20548;-86
2023/08/04 07:10:35;;;;;;;6.25;1.90;;;;;;;;;;8459895;28;20047;-88
2023/08/04 07:14:38;;;;;;;4.40;1.70;;;;;;;;;;8444776;28;20502;-89
2023/08/04 07:18:42;;;;;;;2.83;1.73;;;;;;;;;;8456757;28;20048;-88
2023/08/04 07:22:45;;;;;;;4.90;1.75;;;;;;;;;;8460937;28;20051;-91
2023/08/04 07:26:48;;;;;;;6.45;2.20;;;;;;;;;;8456177;28;20061;-87
2023/08/04 07:30:51;;;;;;;4.90;2.00;;;;;;;;;;8447265;28;20442;-88
2023/08/04 07:34:55;;;;;;;5.07;1.83;;;;;;;;;;8461637;28;20479;-86
2023/08/04 07:38:59;;;;;;;4.43;1.63;;;;;;;;;;8464259;28;20475;-88
2023/08/04 07:43:02;;;;;;;5.05;1.92;;;;;;;;;;8450883;28;20050;-87
2023/08/04 07:47:05;;;;;;;3.28;1.73;;;;;;;;;;8461082;28;20075;-86
2023/08/04 07:51:10;;;;;;;4.35;1.90;;;;;;;;;;8454117;28;20043;-85
2023/08/04 07:55:13;;;;;;;4.20;1.60;;;;;;;;;;8468392;28;20078;-88
2023/08/04 07:59:16;;;;;;;3.63;1.70;;;;;;;;;;8447717;28;20042;-91
2023/08/04 08:03:19;;;;;;;4.15;1.50;;;;;;;;;;8432199;28;20109;-88
2023/08/04 08:07:23;;;;;;;2.88;1.60;;;;;;;;;;8459520;28;20043;-89
2023/08/04 08:11:26;;;;;;;6.45;2.13;;;;;;;;;;8460759;28;21696;-90
2023/08/04 08:15:44;;;;;;;3.28;1.67;;;;;;;;;;8442501;28;20048;-88
2023/08/04 08:19:52;;;;;;;4.43;1.90;;;;;;;;;;8444990;28;20048;-87
2023/08/04 08:24:04;;;;;;;5.78;1.70;;;;;;;;;;8457081;28;20411;-92
2023/08/04 08:28:09;;;;;;;5.82;1.85;;;;;;;;;;8457230;28;20055;-89
2023/08/04 08:32:19;;;;;;;2.78;1.80;;;;;;;;;;8446700;28;20636;-93
2023/08/04 08:36:27;;;;;;;;;;;;;;;;;;8452429;28;20046;-88
2023/08/04 08:40:36;;;;;;;3.53;1.70;;;;;;;;;;8451087;28;20279;-88
2023/08/04 08:44:52;;;;;;;7.85;2.55;;;;;;;;;;8444091;28;20211;-94
2023/08/04 08:49:00;;;;;;;7.10;3.30;;;;;;;;;;8434481;28;20088;-86
2023/08/04 08:53:10;;;;;;;4.55;2.33;;;;;;;;;;8457506;28;20055;-90
2023/08/04 08:57:16;;;;;;;5.38;2.25;;;;;;;;;;8451212;28;20043;-89
2023/08/04 09:01:28;;;;;;;3.50;1.73;;;;;;;;;;8460608;28;20078;-88
2023/08/04 09:05:36;;;;;;;8.38;3.63;;;;;;;;;;8459406;28;20096;-88
2023/08/04 09:09:49;;;;;;;2.70;1.83;;;;;;;;;;8442091;28;20051;-88
2023/08/04 09:14:05;;;;;;;5.55;2.97;;;;;;;;;;8439670;28;20040;-88
2023/08/04 09:18:11;;;;;;;5.45;2.50;;;;;;;;;;8460633;28;20047;-85
2023/08/04 09:22:16;;;;;;;5.57;2.20;;;;;;;;;;8452259;28;20545;-92
2023/08/04 09:26:20;;;;;;;9.80;6.35;;;;;;;;;;8456366;28;20054;-90
2023/08/04 09:30:25;;;;;;;6.38;3.00;;;;;;;;;;8447075;28;20143;-90
2023/08/04 09:34:29;;;;;;;7.57;1.92;;;;;;;;;;8455563;28;20190;-88
2023/08/04 09:38:36;;;;;;;2.88;1.83;;;;;;;;;;8460930;28;20143;-88
2023/08/04 09:42:45;;;;;;;3.33;1.90;;;;;;;;;;8447132;28;20163;-90
2023/08/04 09:46:55;;;;;;;2.97;1.63;;;;;;;;;;8460795;28;20606;-93
2023/08/04 09:51:11;;;;;;;5.55;1.80;;;;;;;;;;8450232;28;20075;-89
2023/08/04 09:55:17;;;;;;;4.43;1.70;;;;;;;;;;8449971;28;20452;-90
2023/08/04 09:59:20;;;;;;;4.78;1.60;;;;;;;;;;8444437;28;20036;-87
2023/08/04 10:03:34;;;;;;;3.00;1.60;;;;;;;;;;8460333;28;20071;-90
2023/08/04 10:07:41;;;;;;;3.03;1.55;;;;;;;;;;8448490;28;20298;-87
2023/08/04 10:12:01;;;;;;;5.55;1.88;;;;;;;;;;8459853;28;20075;-91
2023/08/04 10:16:15;;;;;;;5.68;2.58;;;;;;;;;;8460109;28;20065;-90
2023/08/04 10:20:22;;;;;;;4.60;1.85;;;;;;;;;;8450065;28;20593;-88
2023/08/04 10:24:27;;;;;;;5.10;2.70;;;;;;;;;;8438999;28;20062;-88
2023/08/04 10:28:32;;;;;;;7.45;2.03;;;;;;;;;;8455566;28;20467;-89
2023/08/04 10:32:38;;;;;;;3.42;1.67;;;;;;;;;;8445587;28;20050;-89
2023/08/04 10:37:04;;;;;;;5.45;2.30;;;;;;;;;;8447852;28;20468;-87
2023/08/04 10:41:06;;;;;;;6.40;2.40;;;;;;;;;;8453282;28;20403;-94
2023/08/04 10:45:10;;;;;;;4.20;1.98;;;;;;;;;;8456656;28;20115;-93
2023/08/04 10:49:13;;;;;;;4.82;2.08;;;;;;;;;;8446207;28;20078;-92
2023/08/04 10:53:18;;;;;;;5.82;2.17;;;;;;;;;;8457733;28;20039;-92
2023/08/04 10:57:22;;;;;;;5.65;2.67;;;;;;;;;;8466317;28;20069;-93
2023/08/04 11:01:27;;;;;;;4.90;1.73;;;;;;;;;;8463235;28;20109;-93
2023/08/04 11:05:32;;;;;;;4.13;1.80;;;;;;;;;;8459227;28;20050;-90
2023/08/04 11:09:37;;;;;;;4.45;2.00;;;;;;;;;;8465286;28;20040;-93
2023/08/04 11:13:40;;;;;;;5.43;1.83;;;;;;;;;;8467694;28;20048;-88
2023/08/04 11:17:43;;;;;;;6.07;2.50;;;;;;;;;;8467315;28;20456;-92
2023/08/04 11:21:47;;;;;;;4.20;1.88;;;;;;;;;;8452327;28;20082;-89
2023/08/04 11:25:53;;;;;;;5.75;1.67;;;;;;;;;;8453570;28;20075;-90
2023/08/04 11:29:58;;;;;;;4.22;1.90;;;;;;;;;;8458295;28;20028;-86
2023/08/04 11:34:13;;;;;;;3.22;1.48;;;;;;;;;;8426724;28;20050;-89
2023/08/04 11:38:16;;;;;;;3.00;1.77;;;;;;;;;;8424493;28;20045;-87
2023/08/04 11:42:20;;;;;;;6.03;1.80;;;;;;;;;;8417242;28;20498;-87
2023/08/04 11:46:24;;;;;;;4.65;1.70;;;;;;;;;;8408762;28;20048;-92
2023/08/04 11:50:27;;;;;;;3.75;1.70;;;;;;;;;;8409921;28;20127;-90
2023/08/04 11:54:30;;;;;;;2.63;1.55;;;;;;;;;;8421475;28;20366;-90
2023/08/04 11:58:36;;;;;;;3.38;1.50;;;;;;;;;;8421990;28;20123;-93
2023/08/04 12:02:56;;;;;;;4.18;1.83;;;;;;;;;;8433589;28;20067;-87
2023/08/04 12:07:00;;;;;;;4.80;2.13;;;;;;;;;;8414523;28;20040;-93
2023/08/04 12:11:02;;;;;;;4.07;1.77;;;;;;;;;;8424202;28;20487;-94
2023/08/04 12:15:08;;;;;;;4.00;1.73;;;;;;;;;;8426776;28;20056;-92
2023/08/04 12:19:11;;;;;;;4.47;1.70;;;;;;;;;;8413318;28;20504;-90
2023/08/04 12:23:14;;;;;;;3.15;1.42;;;;;;;;;;8423932;28;20542;-91
2023/08/04 12:27:17;;;;;;;2.95;1.40;;;;;;;;;;8415428;28;20041;-86
2023/08/04 12:31:22;;;;;;;3.47;1.63;;;;;;;;;;8417387;28;20040;-89
2023/08/04 12:35:25;;;;;;;3.30;1.33;;;;;;;;;;8417795;28;20139;-91
2023/08/04 12:39:28;;;;;;;4.28;1.40;;;;;;;;;;8406403;28;20484;-87
2023/08/04 12:43:38;;;;;;;7.07;1.75;;;;;;;;;;8426530;28;20117;-88
2023/08/04 12:47:45;;;;;;;4.10;1.60;;;;;;;;;;8432243;28;20123;-89
2023/08/04 12:51:51;;;;;;;3.95;1.50;;;;;;;;;;8430552;28;20476;-87
2023/08/04 12:55:55;;;;;;;3.55;1.60;;;;;;;;;;8426666;28;20069;-87
2023/08/04 12:59:59;;;;;;;3.42;1.50;;;;;;;;;;8419710;28;21241;-86
2023/08/04 13:04:04;;;;;;;4.65;1.50;;;;;;;;;;8420137;28;20135;-90
2023/08/04 13:08:07;;;;;;;4.43;1.70;;;;;;;;;;8417126;28;20242;-87
2023/08/04 13:12:10;;;;;;;3.63;1.40;;;;;;;;;;8409957;28;20036;-87
2023/08/04 13:16:14;;;;;;;2.10;1.42;;;;;;;;;;8417970;28;20044;-88
2023/08/04 13:20:19;;;;;;;4.13;1.60;;;;;;;;;;8422218;28;20047;-88
2023/08/04 13:24:22;;;;;;;2.95;1.73;;;;;;;;;;8427636;28;20127;-90
2023/08/04 13:28:25;;;;;;;4.22;1.48;;;;;;;;;;8421817;28;20052;-90
2023/08/04 13:32:28;;;;;;;4.30;1.77;;;;;;;;;;8431534;28;20048;-92
2023/08/04 13:36:32;;;;;;;4.80;1.70;;;;;;;;;;8427088;28;20044;-86
2023/08/04 13:40:35;;;;;;;3.80;1.52;;;;;;;;;;8420924;28;20051;-89
2023/08/04 13:44:38;;;;;;;6.00;1.70;;;;;;;;;;8411938;28;20044;-86
2023/08/04 13:48:41;;;;;;;3.42;1.52;;;;;;;;;;8430220;28;20209;-89
2023/08/04 13:52:45;;;;;;;3.55;1.90;;;;;;;;;;8416209;28;20087;-88
2023/08/04 13:56:48;;;;;;;4.70;1.75;;;;;;;;;;8430477;28;20068;-87
2023/08/04 14:00:58;;;;;;;3.92;1.85;;;;;;;;;;8425588;28;20135;-89
2023/08/04 14:05:01;;;;;;;8.85;2.20;;;;;;;;;;8422549;28;20090;-86
2023/08/04 14:09:07;;;;;;;5.00;2.03;;;;;;;;;;8429096;28;20142;-86
2023/08/04 14:13:09;;;;;;;3.58;1.70;;;;;;;;;;8429469;28;20060;-86
2023/08/04 14:17:12;;;;;;;3.65;1.65;;;;;;;;;;8428588;28;20052;-89
2023/08/04 14:21:15;;;;;;;5.65;1.83;;;;;;;;;;8430113;28;20489;-90
2023/08/04 14:25:19;;;;;;;2.90;1.65;;;;;;;;;;8410068;28;20044;-87
2023/08/04 14:29:22;;;;;;;5.03;1.60;;;;;;;;;;8395851;28;20138;-87
2023/08/04 14:33:25;;;;;;;4.40;1.60;;;;;;;;;;8415498;28;20544;-85
2023/08/04 14:37:28;;;;;;;3.40;1.60;;;;;;;;;;8415831;28;20040;-88
2023/08/04 14:41:32;;;;;;;3.28;1.70;;;;;;;;;;8414252;28;20067;-87
2023/08/04 14:45:35;;;;;;;6.05;1.77;;;;;;;;;;8414850;28;20105;-89
2023/08/04 14:49:38;;;;;;;4.00;1.90;;;;;;;;;;8413094;28;20150;-88
2023/08/04 14:53:41;;;;;;;3.70;1.75;;;;;;;;;;8409945;28;20064;-87
2023/08/04 14:57:45;;;;;;;3.58;1.80;;;;;;;;;;8406926;28;20131;-87
2023/08/04 15:01:48;;;;;;;5.63;1.90;;;;;;;;;;8426777;28;20072;-86
2023/08/04 15:05:51;;;;;;;3.90;1.90;;;;;;;;;;8412493;28;20080;-93
2023/08/04 15:09:54;;;;;;;4.88;1.60;;;;;;;;;;8420147;28;20040;-87
2023/08/04 15:13:59;;;;;;;6.43;1.90;;;;;;;;;;8413111;28;20489;-90
2023/08/04 15:18:02;;;;;;;3.78;2.20;;;;;;;;;;8424148;28;20123;-90
2023/08/04 15:22:07;;;;;;;4.10;1.70;;;;;;;;;;8418539;28;20400;-91
2023/08/04 15:26:10;;;;;;;5.90;1.80;;;;;;;;;;8415958;28;20422;-89
2023/08/04 15:30:14;;;;;;;4.28;2.08;;;;;;;;;;8395178;28;20053;-92
2023/08/04 15:34:17;;;;;;;4.53;2.10;;;;;;;;;;8409905;28;20504;-92
2023/08/04 15:38:20;;;;;;;4.35;2.00;;;;;;;;;;8420698;28;20040;-89
2023/08/04 15:42:23;;;;;;;6.57;2.30;;;;;;;;;;8411371;28;20036;-89
2023/08/04 15:46:28;;;;;;;6.45;2.65;;;;;;;;;;8424063;28;20074;-88
2023/08/04 15:50:31;;;;;;;6.03;2.40;;;;;;;;;;8427673;28;20044;-91
2023/08/04 15:54:34;;;;;;;4.68;2.40;;;;;;;;;;8412364;28;20173;-86
2023/08/04 15:58:36;;;;;;;6.05;2.38;;;;;;;;;;8422541;28;20048;-87
2023/08/04 16:02:40;;;;;;;5.70;2.33;;;;;;;;;;8417434;28;20523;-88
2023/08/04 16:06:43;;;;;;;3.97;2.17;;;;;;;;;;8418776;28;20464;-88
2023/08/04 16:10:46;;;;;;;6.70;2.45;;;;;;;;;;8424254;28;20481;-89
2023/08/04 16:14:51;;;;;;;6.05;2.20;;;;;;;;;;8425306;28;20040;-86
2023/08/04 16:18:57;;;;;;;5.75;2.05;;;;;;;;;;8429935;28;20508;-88
2023/08/04 16:22:59;;;;;;;5.13;2.60;;;;;;;;;;8428941;28;20075;-87
2023/08/04 16:27:02;;;;;;;4.65;2.22;;;;;;;;;;8415550;28;20157;-87
2023/08/04 16:31:05;;;;;;;5.35;2.33;;;;;;;;;;8402441;28;20450;-87
2023/08/04 16:35:10;;;;;;;6.38;1.90;;;;;;;;;;8406033;28;20484;-90
2023/08/04 16:39:13;;;;;;;5.68;2.30;;;;;;;;;;8421526;28;20115;-90
2023/08/04 16:43:16;;;;;;;4.70;2.00;;;;;;;;;;8419446;28;20414;-91
2023/08/04 16:47:19;;;;;;;4.72;1.90;;;;;;;;;;8418944;28;20047;-86
2023/08/04 16:51:23;;;;;;;4.78;2.25;;;;;;;;;;8432016;28;20123;-90
2023/08/04 16:55:26;;;;;;;3.55;2.10;;;;;;;;;;8428290;28;20090;-91
2023/08/04 16:59:29;;;;;;;5.30;1.98;;;;;;;;;;8412434;28;20072;-87
2023/08/04 17:03:32;;;;;;;4.32;2.25;;;;;;;;;;8412427;28;20060;-91
2023/08/04 17:07:36;;;;;;;4.50;2.10;;;;;;;;;;8411119;28;20060;-89
2023/08/04 17:11:39;;;;;;;4.93;2.35;;;;;;;;;;8416482;28;20051;-87
2023/08/04 17:15:42;;;;;;;5.45;2.85;;;;;;;;;;8414772;28;20037;-92
2023/08/04 17:19:45;;;;;;;4.45;2.25;;;;;;;;;;8419131;28;20533;-90
2023/08/04 17:23:49;;;;;;;5.32;2.42;;;;;;;;;;8420227;28;20134;-92
2023/08/04 17:27:53;;;;;;;4.13;2.13;;;;;;;;;;8418276;28;20518;-89
2023/08/04 17:31:56;;;;;;;5.75;2.70;;;;;;;;;;8417997;28;20052;-86
2023/08/04 17:35:59;;;;;;;12.30;3.58;;;;;;;;;;8417416;28;20075;-89
2023/08/04 17:40:04;;;;;;;8.38;2.67;;;;;;;;;;8417915;28;20048;-90
2023/08/04 17:44:07;;;;;;;5.75;2.80;;;;;;;;;;8431627;28;20129;-86
2023/08/04 17:48:10;;;;;;;9.30;3.92;;;;;;;;;;8403072;28;20127;-91
2023/08/04 17:52:13;;;;;;;13.15;6.55;;;;;;;;;;8406249;28;20116;-89
2023/08/04 17:56:18;;;;;;;17.48;7.88;;;;;;;;;;8417421;28;20106;-91
2023/08/04 18:00:21;;;;;;;11.57;7.45;;;;;;;;;;8404629;28;20063;-90
2023/08/04 18:04:24;;;;;;;13.63;6.85;;;;;;;;;;8431127;28;20502;-87
2023/08/04 18:08:27;;;;;;;9.32;4.65;;;;;;;;;;8416604;28;20119;-88
2023/08/04 18:12:31;;;;;;;10.50;6.07;;;;;;;;;;8416659;28;20644;-88
2023/08/04 18:16:34;;;;;;;14.82;7.38;;;;;;;;;;8430350;28;20075;-86
2023/08/04 18:20:37;;;;;;;12.57;6.40;;;;;;;;;;8430655;28;20500;-91
2023/08/04 18:24:40;;;;;;;10.77;5.47;;;;;;;;;;8416150;28;20087;-92
2023/08/04 18:28:45;;;;;;;12.75;6.30;;;;;;;;;;8427069;28;20044;-90
2023/08/04 18:32:51;;;;;;;10.38;4.95;;;;;;;;;;8412878;28;20510;-94
2023/08/04 18:36:55;;;;;;;8.38;4.20;;;;;;;;;;8421870;28;20046;-94
2023/08/04 18:41:04;;;;;;;7.07;3.80;;;;;;;;;;8430194;28;20036;-89
2023/08/04 18:45:11;;;;;;;14.27;6.38;;;;;;;;;;8425200;28;20077;-93
2023/08/04 18:49:15;;;;;;;15.05;6.50;;;;;;;;;;8426729;28;20222;-90
2023/08/04 18:53:19;;;;;;;9.98;4.60;;;;;;;;;;8429524;28;20036;-87
2023/08/04 18:57:22;;;;;;;12.18;4.57;;;;;;;;;;8427607;28;20072;-93
2023/08/04 19:01:27;;;;;;;10.98;4.32;;;;;;;;;;8419143;28;20142;-90
2023/08/04 19:05:32;;;;;;;10.18;3.88;;;;;;;;;;8425941;28;20052;-90
2023/08/04 19:09:35;;;;;;;37.13;18.17;;;;;;;;;;8414294;28;20119;-88
2023/08/04 19:13:38;;;;;;;16.45;9.68;;;;;;;;;;8417486;28;20384;-88
2023/08/04 19:17:44;;;;;;;11.00;6.20;;;;;;;;;;8411170;28;20517;-88
2023/08/04 19:21:48;;;;;;;9.65;4.50;;;;;;;;;;8419646;28;20036;-90
2023/08/04 19:25:52;;;;;;;10.23;4.63;;;;;;;;;;8409940;28;20048;-87
2023/08/04 19:29:56;;;;;;;21.67;11.00;;;;;;;;;;8431104;28;20063;-89
2023/08/04 19:34:01;;;;;;;12.07;6.97;;;;;;;;;;8408669;28;20050;-88
2023/08/04 19:38:05;;;;;;;10.00;4.80;;;;;;;;;;8434534;28;20126;-89
2023/08/04 19:42:09;;;;;;;10.65;7.07;;;;;;;;;;8426672;28;20438;-89
2023/08/04 19:46:14;;;;;;;14.65;8.15;;;;;;;;;;8414243;28;20131;-89
2023/08/04 19:50:19;;;;;;;15.60;8.25;;;;;;;;;;8421777;28;20083;-89
2023/08/04 19:54:23;;;;;;;13.27;7.18;;;;;;;;;;8407704;28;20618;-91
2023/08/04 19:58:27;;;;;;;13.95;8.57;;;;;;;;;;8422585;28;20076;-87
2023/08/04 20:02:31;;;;;;;16.25;9.13;;;;;;;;;;8413257;28;20057;-87
2023/08/04 20:06:37;;;;;;;12.60;6.22;;;;;;;;;;8425493;28;20439;-91
2023/08/04 20:10:41;;;;;;;11.93;4.88;;;;;;;;;;8420035;28;20044;-86
2023/08/04 20:14:49;;;;;;;8.27;4.55;;;;;;;;;;8419993;28;20149;-90
2023/08/04 20:18:54;;;;;;;10.43;4.95;;;;;;;;;;8419742;28;20476;-91
2023/08/04 20:23:00;;;;;;;6.57;4.13;;;;;;;;;;8432948;28;20052;-87
2023/08/04 20:27:05;;;;;;;10.30;4.90;;;;;;;;;;8404995;28;20044;-87
2023/08/04 20:31:11;;;;;;;9.80;5.60;;;;;;;;;;8432748;28;20047;-88
2023/08/04 20:35:15;;;;;;;8.68;5.10;;;;;;;;;;8419225;28;20048;-90
2023/08/04 20:39:21;;;;;;;9.50;4.82;;;;;;;;;;8431975;28;20050;-89
2023/08/04 20:43:25;;;;;;;10.02;4.97;;;;;;;;;;8412487;28;20044;-89
2023/08/04 20:47:28;;;;;;;9.38;4.40;;;;;;;;;;8412628;28;20131;-87
2023/08/04 20:51:32;;;;;;;8.23;4.75;;;;;;;;;;8432102;28;20071;-90
2023/08/04 20:55:37;;;;;;;14.07;4.82;;;;;;;;;;8431917;28;20377;-87
2023/08/04 20:59:40;;;;;;;10.30;5.20;;;;;;;;;;8409502;28;20055;-87
2023/08/04 21:03:43;;;;;;;10.80;4.80;;;;;;;;;;8412630;28;20056;-88
2023/08/04 21:07:46;;;;;;;9.57;4.18;;;;;;;;;;8418131;28;20048;-88
2023/08/04 21:11:50;;;;;;;10.18;4.97;;;;;;;;;;8431471;28;20044;-87
2023/08/04 21:15:53;;;;;;;10.38;5.43;;;;;;;;;;8410142;28;20124;-88
2023/08/04 21:20:00;;;;;;;7.57;4.82;;;;;;;;;;8425323;28;20048;-89
2023/08/04 21:24:03;;;;;;;9.52;5.18;;;;;;;;;;8406356;28;20134;-88
2023/08/04 21:28:07;;;;;;;8.10;4.97;;;;;;;;;;8417799;28;20048;-88
2023/08/04 21:32:10;;;;;;;10.50;6.45;;;;;;;;;;8431192;28;20559;-89
2023/08/04 21:36:13;;;;;;;10.98;6.20;;;;;;;;;;8430428;28;20047;-87
2023/08/04 21:40:16;;;;;;;16.00;5.93;;;;;;;;;;8416860;28;20042;-88
2023/08/04 21:44:20;;;;;;;10.30;6.10;;;;;;;;;;8430328;28;20047;-89
2023/08/04 21:48:23;;;;;;;12.48;6.03;;;;;;;;;;8430485;28;20126;-88
2023/08/04 21:52:26;;;;;;;12.55;5.70;;;;;;;;;;8430158;28;20074;-86
2023/08/04 21:56:29;;;;;;;8.88;5.05;;;;;;;;;;8430129;28;20040;-90
2023/08/04 22:00:33;;;;;;;11.48;5.72;;;;;;;;;;8416096;28;20185;-86
2023/08/04 22:04:36;;;;;;;11.95;5.68;;;;;;;;;;8430429;28;20050;-88
2023/08/04 22:08:39;;;;;;;9.52;6.25;;;;;;;;;;8430210;28;20044;-90
2023/08/04 22:12:42;;;;;;;9.82;6.03;;;;;;;;;;8430403;28;20048;-91
2023/08/04 22:16:46;;;;;;;13.00;7.22;;;;;;;;;;8428633;28;20134;-87
2023/08/04 22:20:55;;;;;;;9.85;5.53;;;;;;;;;;8420783;28;20127;-89
2023/08/04 22:24:58;;;;;;;9.23;6.00;;;;;;;;;;8413234;28;20389;-88
2023/08/04 22:29:02;;;;;;;7.95;4.60;;;;;;;;;;8416395;28;20093;-88
2023/08/04 22:33:06;;;;;;;8.48;5.07;;;;;;;;;;8412604;28;20044;-90
2023/08/04 22:37:09;;;;;;;8.02;4.93;;;;;;;;;;8420430;28;20044;-88
2023/08/04 22:41:12;;;;;;;8.60;4.88;;;;;;;;;;8415686;28;20547;-91
2023/08/04 22:45:15;;;;;;;7.60;4.90;;;;;;;;;;8429553;28;20051;-87
2023/08/04 22:49:19;;;;;;;10.05;5.07;;;;;;;;;;8431300;28;20078;-88
2023/08/04 22:53:21;;;;;;;8.10;5.45;;;;;;;;;;8436793;28;20122;-90
2023/08/04 22:57:26;;;;;;;8.23;4.57;;;;;;;;;;8436926;28;20054;-88
2023/08/04 23:01:29;;;;;;;6.60;4.40;;;;;;;;;;8436648;28;20178;-88
2023/08/04 23:05:34;;;;;;;7.55;4.70;;;;;;;;;;8433362;28;20044;-90
2023/08/04 23:09:36;;;;;;;8.95;4.32;;;;;;;;;;8413081;28;20100;-88
2023/08/04 23:13:39;;;;;;;9.40;4.40;;;;;;;;;;8432548;28;20488;-91
2023/08/04 23:17:42;;;;;;;10.65;4.50;;;;;;;;;;8416349;28;20131;-89
2023/08/04 23:21:46;;;;;;;7.55;4.88;;;;;;;;;;8432874;28;20040;-89
2023/08/04 23:25:49;;;;;;;7.88;4.80;;;;;;;;;;8421994;28;20514;-90
2023/08/04 23:29:52;;;;;;;8.30;4.57;;;;;;;;;;8421646;28;20533;-89
2023/08/04 23:33:55;;;;;;;8.10;5.10;;;;;;;;;;8410935;28;20576;-88
2023/08/04 23:38:00;;;;;;;7.45;4.60;;;;;;;;;;8432170;28;20127;-87
2023/08/04 23:42:03;;;;;;;10.57;5.85;;;;;;;;;;8435066;28;20046;-88
2023/08/04 23:46:05;;;;;;;11.82;6.03;;;;;;;;;;8434671;28;20076;-88
2023/08/04 23:50:09;;;;;;;10.15;6.40;;;;;;;;;;8410232;28;20049;-88
2023/08/04 23:54:13;;;;;;;11.07;5.82;;;;;;;;;;8419095;28;20048;-88
2023/08/04 23:58:16;;;;;;;9.70;5.68;;;;;;;;;;8409425;28;20396;-88
